createdAt,value
2022-09-03T00:01:03.181Z,19.40
2022-09-03T00:03:38.985Z,19.40
2022-09-03T00:06:20.826Z,19.40
2022-09-03T00:09:01.027Z,19.30
2022-09-03T00:11:39.253Z,19.30
2022-09-03T00:14:11.752Z,19.20
2022-09-03T00:16:55.401Z,19.20
2022-09-03T00:19:31.006Z,19.20
2022-09-03T00:22:03.511Z,19.20
2022-09-03T00:24:36.410Z,19.10
2022-09-03T00:27:08.001Z,19.10
2022-09-03T00:30:01.148Z,19.10
2022-09-03T00:33:06.952Z,19.10
2022-09-03T00:35:36.012Z,19.00
2022-09-03T00:38:02.855Z,19.00
2022-09-03T00:41:02.102Z,19.00
2022-09-03T00:44:10.853Z,18.90
2022-09-03T00:46:59.260Z,18.90
2022-09-03T00:49:29.182Z,18.90
2022-09-03T00:52:06.358Z,18.90
2022-09-03T00:54:33.246Z,18.80
2022-09-03T00:57:29.640Z,18.80
2022-09-03T00:59:59.059Z,18.70
2022-09-03T01:02:35.295Z,18.70
2022-09-03T01:05:02.128Z,18.70
2022-09-03T01:07:46.245Z,18.70
2022-09-03T01:10:38.649Z,18.70
2022-09-03T01:13:05.837Z,18.60
2022-09-03T01:15:54.586Z,18.60
2022-09-03T01:18:34.146Z,18.60
2022-09-03T01:21:34.870Z,18.60
2022-09-03T01:24:39.152Z,18.50
2022-09-03T01:27:26.998Z,18.50
2022-09-03T01:30:06.181Z,18.50
2022-09-03T01:32:36.047Z,18.50
2022-09-03T01:35:28.073Z,18.40
2022-09-03T01:38:09.504Z,18.40
2022-09-03T01:40:40.688Z,18.40
2022-09-03T01:43:14.051Z,18.40
2022-09-03T01:45:53.640Z,18.40
2022-09-03T01:48:59.205Z,18.40
2022-09-03T01:51:29.510Z,18.30
2022-09-03T01:54:26.713Z,18.30
2022-09-03T01:57:35.544Z,18.20
2022-09-03T02:00:23.018Z,18.20
2022-09-03T02:02:51.835Z,18.10
2022-09-03T02:05:24.752Z,18.10
2022-09-03T02:08:00.976Z,18.10
2022-09-03T02:10:31.635Z,18.00
2022-09-03T02:13:10.613Z,18.10
2022-09-03T02:15:40.160Z,18.00
2022-09-03T02:18:13.556Z,18.00
2022-09-03T02:20:40.518Z,18.00
2022-09-03T02:23:07.346Z,18.00
2022-09-03T02:25:40.318Z,18.00
2022-09-03T02:28:17.366Z,17.90
2022-09-03T02:30:45.089Z,17.90
2022-09-03T02:33:12.190Z,17.90
2022-09-03T02:35:40.738Z,17.90
2022-09-03T02:38:20.040Z,17.90
2022-09-03T02:40:47.522Z,17.90
2022-09-03T02:43:32.420Z,17.90
2022-09-03T02:46:03.674Z,17.90
2022-09-03T02:48:30.588Z,17.80
2022-09-03T02:50:57.367Z,17.80
2022-09-03T02:53:24.080Z,17.80
2022-09-03T02:55:50.843Z,17.80
2022-09-03T02:58:17.588Z,17.80
2022-09-03T03:00:44.988Z,17.70
2022-09-03T03:03:11.778Z,17.70
2022-09-03T03:06:00.514Z,17.70
2022-09-03T03:08:28.832Z,17.70
2022-09-03T03:10:58.866Z,17.70
2022-09-03T03:13:30.117Z,17.70
2022-09-03T03:16:01.651Z,17.70
2022-09-03T03:18:29.173Z,17.70
2022-09-03T03:20:56.070Z,17.70
2022-09-03T03:23:22.820Z,17.60
2022-09-03T03:25:49.783Z,17.70
2022-09-03T03:28:18.054Z,17.70
2022-09-03T03:30:47.608Z,17.70
2022-09-03T03:33:14.508Z,17.60
2022-09-03T03:35:42.680Z,17.70
2022-09-03T03:38:09.621Z,17.70
2022-09-03T03:40:40.842Z,17.70
2022-09-03T03:43:07.603Z,17.70
2022-09-03T03:45:34.733Z,17.70
2022-09-03T03:48:01.495Z,17.70
2022-09-03T03:50:28.190Z,17.70
2022-09-03T03:52:54.953Z,17.70
2022-09-03T03:55:21.721Z,17.70
2022-09-03T03:57:48.583Z,17.70
2022-09-03T04:00:15.871Z,17.70
2022-09-03T04:02:42.982Z,17.70
2022-09-03T04:05:10.554Z,17.70
2022-09-03T04:07:38.347Z,17.60
2022-09-03T04:10:05.748Z,17.60
2022-09-03T04:12:33.243Z,17.60
2022-09-03T04:14:59.960Z,17.70
2022-09-03T04:17:28.241Z,17.70
2022-09-03T04:19:55.004Z,17.70
2022-09-03T04:22:21.848Z,17.70
2022-09-03T04:24:48.618Z,17.70
2022-09-03T04:27:15.532Z,17.70
2022-09-03T04:29:42.226Z,17.70
2022-09-03T04:32:27.541Z,17.70
2022-09-03T04:34:54.382Z,17.70
2022-09-03T04:37:21.145Z,17.70
2022-09-03T04:39:48.018Z,17.70
2022-09-03T04:42:14.758Z,17.70
2022-09-03T04:44:41.998Z,17.60
2022-09-03T04:47:08.757Z,17.60
2022-09-03T04:49:35.623Z,17.60
2022-09-03T04:52:03.563Z,17.60
2022-09-03T04:54:30.320Z,17.60
2022-09-03T04:56:57.169Z,17.60
2022-09-03T04:59:24.046Z,17.60
2022-09-03T05:01:52.747Z,17.60
2022-09-03T05:04:19.823Z,17.60
2022-09-03T05:06:46.682Z,17.60
2022-09-03T05:09:13.512Z,17.60
2022-09-03T05:11:40.455Z,17.60
2022-09-03T05:14:11.694Z,17.60
2022-09-03T05:16:38.849Z,17.60
2022-09-03T05:19:08.814Z,17.60
2022-09-03T05:21:36.437Z,17.60
2022-09-03T05:24:04.544Z,17.60
2022-09-03T05:26:36.574Z,17.70
2022-09-03T05:29:07.786Z,17.70
2022-09-03T05:31:36.873Z,17.70
2022-09-03T05:34:05.287Z,17.70
2022-09-03T05:36:35.647Z,17.70
2022-09-03T05:39:03.139Z,17.70
2022-09-03T05:41:30.392Z,17.70
2022-09-03T05:43:59.575Z,17.80
2022-09-03T05:46:32.636Z,17.80
2022-09-03T05:49:06.819Z,17.80
2022-09-03T05:51:39.518Z,17.80
2022-09-03T05:54:08.585Z,17.90
2022-09-03T05:56:36.937Z,17.90
2022-09-03T05:59:09.229Z,17.90
2022-09-03T06:01:40.905Z,18.00
2022-09-03T06:04:18.181Z,18.00
2022-09-03T06:06:47.246Z,18.10
2022-09-03T06:09:19.482Z,18.10
2022-09-03T06:11:47.170Z,18.20
2022-09-03T06:14:14.812Z,18.20
2022-09-03T06:16:44.657Z,18.30
2022-09-03T06:19:14.191Z,18.30
2022-09-03T06:21:43.254Z,18.40
2022-09-03T06:24:16.088Z,18.40
2022-09-03T06:26:43.778Z,18.40
2022-09-03T06:29:11.223Z,18.50
2022-09-03T06:31:39.275Z,18.60
2022-09-03T06:34:06.082Z,18.60
2022-09-03T06:36:33.130Z,18.70
2022-09-03T06:39:00.087Z,18.70
2022-09-03T06:41:33.668Z,18.80
2022-09-03T06:44:03.674Z,18.80
2022-09-03T06:46:33.256Z,18.90
2022-09-03T06:49:00.540Z,19.00
2022-09-03T06:51:29.932Z,19.00
2022-09-03T06:54:06.348Z,19.00
2022-09-03T06:56:38.916Z,19.10
2022-09-03T06:59:12.322Z,19.20
2022-09-03T07:01:43.957Z,19.30
2022-09-03T07:04:12.856Z,19.30
2022-09-03T07:06:42.499Z,19.40
2022-09-03T07:09:11.413Z,19.40
2022-09-03T07:11:46.521Z,19.60
2022-09-03T07:14:14.357Z,19.60
2022-09-03T07:16:42.608Z,19.70
2022-09-03T07:19:09.780Z,19.70
2022-09-03T07:21:37.228Z,19.80
2022-09-03T07:24:05.773Z,19.90
2022-09-03T07:26:46.549Z,20.00
2022-09-03T07:29:14.783Z,19.90
2022-09-03T07:31:43.195Z,20.00
2022-09-03T07:34:12.625Z,20.00
2022-09-03T07:36:41.613Z,20.00
2022-09-03T07:39:09.866Z,19.90
2022-09-03T07:41:37.310Z,20.00
2022-09-03T07:44:07.290Z,20.10
2022-09-03T07:46:37.890Z,20.20
2022-09-03T07:49:06.268Z,20.30
2022-09-03T07:51:37.797Z,20.40
2022-09-03T07:54:08.246Z,20.50
2022-09-03T07:56:35.876Z,20.60
2022-09-03T07:59:03.609Z,20.70
2022-09-03T08:01:32.799Z,20.80
2022-09-03T08:04:00.583Z,20.90
2022-09-03T08:06:29.527Z,21.00
2022-09-03T08:09:05.046Z,21.20
2022-09-03T08:11:36.679Z,21.20
2022-09-03T08:14:06.539Z,21.40
2022-09-03T08:16:36.696Z,21.50
2022-09-03T08:19:04.226Z,21.50
2022-09-03T08:21:31.553Z,21.60
2022-09-03T08:24:08.096Z,21.50
2022-09-03T08:26:38.876Z,21.40
2022-09-03T08:29:06.364Z,21.40
2022-09-03T08:31:34.597Z,21.40
2022-09-03T08:34:06.358Z,21.30
2022-09-03T08:36:38.401Z,21.40
2022-09-03T08:39:09.763Z,21.40
2022-09-03T08:42:10.490Z,21.40
2022-09-03T08:45:00.814Z,21.40
2022-09-03T08:47:43.201Z,21.50
2022-09-03T08:50:19.347Z,21.40
2022-09-03T08:52:59.508Z,21.40
2022-09-03T08:55:42.829Z,21.50
2022-09-03T08:58:14.654Z,21.40
2022-09-03T09:01:06.281Z,21.10
2022-09-03T09:03:57.578Z,21.10
2022-09-03T09:06:39.174Z,21.20
2022-09-03T09:09:15.229Z,21.20
2022-09-03T09:12:09.442Z,21.20
2022-09-03T09:15:00.324Z,21.10
2022-09-03T09:17:48.077Z,21.10
2022-09-03T09:20:23.295Z,21.10
2022-09-03T09:22:58.837Z,21.00
2022-09-03T09:25:26.505Z,21.10
2022-09-03T09:28:03.893Z,21.00
2022-09-03T09:30:32.219Z,21.00
2022-09-03T09:33:00.586Z,20.90
2022-09-03T09:35:27.603Z,20.70
2022-09-03T09:38:00.333Z,20.70
2022-09-03T09:40:33.975Z,20.60
2022-09-03T09:43:16.057Z,20.50
2022-09-03T09:45:45.360Z,20.60
2022-09-03T09:48:18.367Z,20.60
2022-09-03T09:50:45.675Z,20.60
2022-09-03T09:53:16.594Z,20.50
2022-09-03T09:55:58.178Z,20.50
2022-09-03T09:58:28.391Z,20.60
2022-09-03T10:00:57.339Z,20.60
2022-09-03T10:03:29.777Z,20.80
2022-09-03T10:06:26.183Z,21.00
2022-09-03T10:09:20.972Z,21.30
2022-09-03T10:12:06.155Z,21.50
2022-09-03T10:14:39.772Z,21.80
2022-09-03T10:17:20.793Z,22.00
2022-09-03T10:20:31.372Z,22.00
2022-09-03T10:23:18.038Z,22.10
2022-09-03T10:26:12.286Z,22.10
2022-09-03T10:28:43.520Z,22.10
2022-09-03T10:31:42.938Z,22.20
2022-09-03T10:34:37.641Z,22.40
2022-09-03T10:37:17.030Z,22.40
2022-09-03T10:39:52.351Z,22.40
2022-09-03T10:42:35.802Z,22.50
2022-09-03T10:45:09.627Z,22.60
2022-09-03T10:47:55.359Z,23.00
2022-09-03T10:50:51.148Z,23.20
2022-09-03T10:53:23.983Z,23.30
2022-09-03T10:56:08.837Z,23.50
2022-09-03T10:58:57.982Z,23.70
2022-09-03T11:01:48.027Z,23.70
2022-09-03T11:04:23.693Z,23.80
2022-09-03T11:07:01.258Z,24.00
2022-09-03T11:09:27.926Z,24.10
2022-09-03T11:12:03.118Z,24.00
2022-09-03T11:14:44.268Z,23.90
2022-09-03T11:17:28.069Z,23.80
2022-09-03T11:20:16.419Z,23.90
2022-09-03T11:22:45.237Z,24.00
2022-09-03T11:25:15.240Z,24.20
2022-09-03T11:27:42.020Z,24.30
2022-09-03T11:30:14.572Z,24.60
2022-09-03T11:32:52.923Z,24.80
2022-09-03T11:35:29.188Z,25.00
2022-09-03T11:38:05.619Z,25.20
2022-09-03T11:40:38.009Z,25.20
2022-09-03T11:43:24.246Z,25.30
2022-09-03T11:46:14.727Z,25.30
2022-09-03T11:48:48.474Z,25.00
2022-09-03T11:51:30.217Z,25.00
2022-09-03T11:54:01.315Z,25.00
2022-09-03T11:56:30.172Z,24.90
2022-09-03T11:59:15.147Z,25.00
2022-09-03T12:01:53.329Z,25.20
2022-09-03T12:04:37.577Z,25.10
2022-09-03T12:07:35.831Z,25.10
2022-09-03T12:10:32.449Z,25.30
2022-09-03T12:13:31.599Z,25.60
2022-09-03T12:16:13.276Z,25.80
2022-09-03T12:18:42.032Z,25.90
2022-09-03T12:21:10.571Z,26.00
2022-09-03T12:23:44.687Z,26.20
2022-09-03T12:26:15.238Z,26.40
2022-09-03T12:28:48.543Z,26.50
2022-09-03T12:31:23.639Z,26.60
2022-09-03T12:33:54.117Z,26.90
2022-09-03T12:36:24.105Z,27.10
2022-09-03T12:39:10.797Z,27.30
2022-09-03T12:41:38.108Z,27.50
2022-09-03T12:44:05.303Z,27.30
2022-09-03T12:46:34.020Z,27.40
2022-09-03T12:52:07.608Z,27.70
2022-09-03T12:55:05.025Z,27.50
2022-09-03T12:57:45.817Z,27.10
2022-09-03T13:00:16.321Z,27.30
2022-09-03T13:03:06.023Z,27.30
2022-09-03T13:05:40.663Z,27.30
2022-09-03T13:08:10.822Z,27.60
2022-09-03T13:10:43.332Z,27.80
2022-09-03T13:13:27.393Z,28.00
2022-09-03T13:16:32.135Z,28.40
2022-09-03T13:19:06.207Z,28.60
2022-09-03T13:21:32.851Z,29.10
2022-09-03T13:24:17.019Z,29.60
2022-09-03T13:26:55.580Z,30.00
2022-09-03T13:29:46.070Z,30.20
2022-09-03T13:32:29.079Z,30.40
2022-09-03T13:35:23.751Z,30.90
2022-09-03T13:38:18.563Z,31.00
2022-09-03T13:40:52.283Z,31.20
2022-09-03T13:43:40.219Z,31.40
2022-09-03T13:46:11.458Z,31.60
2022-09-03T13:49:01.978Z,31.70
2022-09-03T13:51:39.804Z,32.00
2022-09-03T13:57:35.293Z,32.80
2022-09-03T14:00:10.568Z,33.10
2022-09-03T14:03:13.034Z,33.20
2022-09-03T14:06:02.071Z,33.40
2022-09-03T14:08:59.673Z,33.50
2022-09-03T14:11:29.517Z,33.40
2022-09-03T14:14:11.334Z,33.50
2022-09-03T14:16:50.708Z,33.10
2022-09-03T14:19:43.272Z,31.90
2022-09-03T14:22:25.022Z,31.00
2022-09-03T14:25:01.282Z,30.10
2022-09-03T14:27:30.868Z,29.50
2022-09-03T14:30:04.073Z,29.00
2022-09-03T14:32:48.149Z,28.70
2022-09-03T14:35:27.351Z,28.40
2022-09-03T14:38:25.901Z,28.10
2022-09-03T14:41:27.190Z,27.90
2022-09-03T14:44:12.545Z,27.70
2022-09-03T14:47:07.046Z,27.50
2022-09-03T14:49:42.325Z,27.40
2022-09-03T14:52:37.338Z,27.40
2022-09-03T14:55:07.090Z,27.50
2022-09-03T14:57:58.647Z,27.40
2022-09-03T15:00:43.537Z,27.40
2022-09-03T15:03:34.332Z,27.30
2022-09-03T15:06:32.487Z,27.10
2022-09-03T15:09:23.342Z,27.00
2022-09-03T15:12:00.043Z,26.90
2022-09-03T15:14:36.139Z,27.00
2022-09-03T15:17:34.042Z,26.90
2022-09-03T15:20:24.332Z,26.90
2022-09-03T15:23:06.158Z,27.00
2022-09-03T15:25:51.529Z,27.00
2022-09-03T15:29:03.245Z,26.90
2022-09-03T15:31:49.721Z,26.90
2022-09-03T15:34:22.366Z,26.80
2022-09-03T15:36:53.715Z,26.80
2022-09-03T15:39:37.051Z,26.60
2022-09-03T15:42:27.724Z,26.60
2022-09-03T15:44:57.426Z,26.60
2022-09-03T15:47:50.919Z,26.50
2022-09-03T15:50:41.246Z,26.50
2022-09-03T15:53:34.071Z,26.50
2022-09-03T15:56:31.076Z,26.60
2022-09-03T15:59:23.724Z,26.50
2022-09-03T16:02:21.648Z,26.50
2022-09-03T16:05:13.857Z,26.40
2022-09-03T16:08:07.792Z,26.40
2022-09-03T16:11:09.617Z,26.20
2022-09-03T16:13:55.050Z,26.20
2022-09-03T16:16:47.976Z,26.20
2022-09-03T16:19:37.881Z,26.10
2022-09-03T16:22:45.270Z,25.80
2022-09-03T16:25:18.184Z,25.70
2022-09-03T16:28:11.528Z,25.60
2022-09-03T16:30:43.529Z,25.70
2022-09-03T16:33:38.424Z,25.60
2022-09-03T16:36:11.141Z,25.70
2022-09-03T16:38:43.817Z,25.50
2022-09-03T16:41:24.612Z,25.40
2022-09-03T16:44:10.397Z,25.30
2022-09-03T16:46:54.575Z,25.10
2022-09-03T16:49:48.606Z,25.00
2022-09-03T16:52:48.125Z,24.80
2022-09-03T16:55:33.298Z,24.70
2022-09-03T16:58:00.153Z,24.60
2022-09-03T17:00:56.815Z,24.50
2022-09-03T17:03:55.878Z,24.40
2022-09-03T17:06:40.263Z,24.20
2022-09-03T17:09:27.227Z,24.10
2022-09-03T17:12:01.922Z,24.00
2022-09-03T17:14:52.246Z,23.90
2022-09-03T17:17:34.053Z,23.80
2022-09-03T17:20:31.072Z,23.60
2022-09-03T17:23:06.743Z,23.50
2022-09-03T17:25:36.123Z,23.40
2022-09-03T17:28:09.481Z,23.30
2022-09-03T17:30:53.622Z,23.20
2022-09-03T17:33:42.776Z,23.10
2022-09-03T17:36:17.993Z,23.00
2022-09-03T17:39:06.975Z,22.80
2022-09-03T17:41:53.415Z,22.70
2022-09-03T17:44:41.829Z,22.70
2022-09-03T17:47:29.494Z,22.60
2022-09-03T17:50:19.672Z,22.50
2022-09-03T17:52:55.565Z,22.40
2022-09-03T17:55:36.014Z,22.30
2022-09-03T17:58:22.947Z,22.20
2022-09-03T18:01:04.283Z,22.00
2022-09-03T18:03:40.649Z,21.90
2022-09-03T18:06:19.231Z,21.80
2022-09-03T18:08:51.712Z,21.70
2022-09-03T18:11:30.732Z,21.60
2022-09-03T18:14:21.680Z,21.50
2022-09-03T18:17:26.887Z,21.40
2022-09-03T18:20:19.343Z,21.30
2022-09-03T18:23:19.945Z,21.20
2022-09-03T18:26:09.538Z,21.20
2022-09-03T18:29:21.998Z,21.10
2022-09-03T18:32:07.131Z,21.10
2022-09-03T18:34:54.488Z,21.10
2022-09-03T18:37:43.271Z,21.00
2022-09-03T18:40:38.247Z,21.00
2022-09-03T18:43:42.191Z,20.90
2022-09-03T18:50:22.428Z,20.80
2022-09-03T18:53:40.081Z,20.80
2022-09-03T18:56:33.651Z,20.80
2022-09-03T18:59:45.981Z,20.70
2022-09-03T19:02:48.320Z,20.60
2022-09-03T19:05:56.723Z,20.60
2022-09-03T19:09:15.779Z,20.50
2022-09-03T19:12:22.876Z,20.40
2022-09-03T19:15:29.976Z,20.40
2022-09-03T19:18:27.490Z,20.40
2022-09-03T19:21:37.289Z,20.40
2022-09-03T19:24:22.748Z,20.30
2022-09-03T19:27:37.515Z,20.30
2022-09-03T19:30:27.474Z,20.20
2022-09-03T19:33:46.525Z,20.20
2022-09-03T19:37:03.101Z,20.20
2022-09-03T19:40:09.577Z,20.10
2022-09-03T19:43:10.823Z,20.00
2022-09-03T19:46:12.726Z,20.00
2022-09-03T19:49:21.598Z,20.00
2022-09-03T19:52:20.352Z,20.00
2022-09-03T19:55:11.558Z,20.00
2022-09-03T19:58:00.062Z,20.00
2022-09-03T20:00:47.328Z,20.00
2022-09-03T20:03:33.326Z,19.90
2022-09-03T20:06:22.092Z,19.90
2022-09-03T20:09:09.789Z,19.90
2022-09-03T20:11:39.214Z,19.80
2022-09-03T20:14:14.210Z,19.80
2022-09-03T20:17:09.055Z,19.80
2022-09-03T20:19:38.581Z,19.70
2022-09-03T20:22:25.586Z,19.70
2022-09-03T20:25:28.320Z,19.70
2022-09-03T20:28:26.067Z,19.70
2022-09-03T20:31:22.854Z,19.70
2022-09-03T20:34:20.414Z,19.70
2022-09-03T20:37:13.952Z,19.70
2022-09-03T20:40:25.758Z,19.70
2022-09-03T20:43:14.634Z,19.60
2022-09-03T20:46:13.011Z,19.60
2022-09-03T20:49:05.114Z,19.50
2022-09-03T20:51:56.998Z,19.50
2022-09-03T20:54:33.772Z,19.50
2022-09-03T20:57:03.503Z,19.40
2022-09-03T20:59:48.203Z,19.40
2022-09-03T21:03:00.342Z,19.40
2022-09-03T21:05:38.130Z,19.40
2022-09-03T21:08:48.039Z,19.30
2022-09-03T21:11:43.195Z,19.30
2022-09-03T21:14:47.177Z,19.30
2022-09-03T21:17:29.425Z,19.40
2022-09-03T21:20:31.615Z,19.30
2022-09-03T21:23:08.959Z,19.30
2022-09-03T21:25:46.753Z,19.30
2022-09-03T21:28:18.497Z,19.30
2022-09-03T21:30:51.712Z,19.30
2022-09-03T21:33:29.670Z,19.30
2022-09-03T21:36:16.581Z,19.20
2022-09-03T21:38:49.325Z,19.20
2022-09-03T21:41:26.579Z,19.20
2022-09-03T21:44:23.806Z,19.20
2022-09-03T21:46:56.574Z,19.20
2022-09-03T21:49:54.633Z,19.10
2022-09-03T21:52:44.514Z,19.10
2022-09-03T21:55:35.974Z,19.00
2022-09-03T21:58:15.999Z,19.00
2022-09-03T22:00:43.829Z,18.90
2022-09-03T22:03:10.571Z,18.90
2022-09-03T22:05:49.570Z,18.80
2022-09-03T22:08:31.524Z,18.80
2022-09-03T22:11:12.126Z,18.80
2022-09-03T22:13:54.413Z,18.80
2022-09-03T22:16:33.563Z,18.80
2022-09-03T22:19:00.756Z,18.80
2022-09-03T22:21:45.649Z,18.80
2022-09-03T22:24:24.482Z,18.80
2022-09-03T22:27:02.723Z,18.80
2022-09-03T22:29:32.150Z,18.80
2022-09-03T22:31:58.954Z,18.80
2022-09-03T22:34:48.932Z,18.80
2022-09-03T22:37:50.689Z,18.80
2022-09-03T22:40:28.734Z,18.80
2022-09-03T22:43:21.391Z,18.80
2022-09-03T22:45:57.807Z,18.70
2022-09-03T22:48:27.744Z,18.70
2022-09-03T22:51:03.183Z,18.80
2022-09-03T22:53:57.227Z,18.70
2022-09-03T22:56:24.069Z,18.70
2022-09-03T22:59:03.222Z,18.80
2022-09-03T23:01:41.096Z,18.80
2022-09-03T23:04:30.042Z,18.80
2022-09-03T23:07:42.757Z,18.70
2022-09-03T23:10:14.454Z,18.70
2022-09-03T23:13:02.954Z,18.70
2022-09-03T23:15:32.308Z,18.70
2022-09-03T23:18:19.649Z,18.60
2022-09-03T23:21:07.978Z,18.60
2022-09-03T23:23:40.493Z,18.60
2022-09-03T23:26:23.644Z,18.60
2022-09-03T23:28:59.363Z,18.60
2022-09-03T23:31:27.583Z,18.60
2022-09-03T23:33:54.892Z,18.60
2022-09-03T23:37:01.452Z,18.60
2022-09-03T23:39:45.388Z,18.50
2022-09-03T23:42:25.135Z,18.60
2022-09-03T23:45:15.573Z,18.50
2022-09-03T23:47:53.341Z,18.50
2022-09-03T23:50:44.923Z,18.50
2022-09-03T23:53:47.608Z,18.50
2022-09-03T23:56:47.673Z,18.50
2022-09-03T23:59:20.365Z,18.50
